Time;durP1;ratioP1;P1;durP2;ratioP2;P2;SDS_P1;SDS_P2;PMS_P1;PMS_P2;Temp;Humidity;BMP_temperature;BMP_pressure;BME280_temperature;BME280_humidity;BME280_pressure;Samples;Min_cycle;Max_cycle;Signal;HPM_P1;HPM_P2
2021/08/03 00:05:49;;;;;;;5.60;2.35;;;;;;;16.00;83.55;100328.25;20989594;28;20049;-70
2021/08/03 00:15:57;;;;;;;4.43;2.38;;;;;;;15.98;83.59;100324.81;20989773;28;20106;-69
2021/08/03 00:25:59;;;;;;;5.35;2.35;;;;;;;15.95;83.87;100324.91;20990802;28;20360;-69
2021/08/03 00:36:01;;;;;;;4.75;2.42;;;;;;;15.89;83.90;100325.16;20989324;28;20040;-70
2021/08/03 00:46:03;;;;;;;6.93;2.55;;;;;;;15.90;83.61;100316.31;20987698;28;20098;-70
2021/08/03 00:56:05;;;;;;;4.40;2.22;;;;;;;15.86;83.46;100322.66;20986627;28;20506;-70
2021/08/03 01:06:19;;;;;;;3.65;2.20;;;;;;;15.82;84.33;100319.25;20984718;28;20564;-70
2021/08/03 01:16:24;;;;;;;4.85;2.50;;;;;;;15.82;84.23;100313.13;20985091;28;20053;-69
2021/08/03 01:26:26;;;;;;;;;;;;;;;15.79;84.12;100318.50;20985727;28;20052;-69
2021/08/03 01:36:28;;;;;;;5.25;2.53;;;;;;;15.76;84.14;100303.66;20984987;28;20421;-69
2021/08/03 01:46:34;;;;;;;12.00;2.55;;;;;;;15.61;83.86;100306.84;20984660;28;20044;-69
2021/08/03 01:56:38;;;;;;;4.93;2.80;;;;;;;15.51;84.38;100308.09;20966568;28;20071;-69
2021/08/03 02:06:40;;;;;;;5.57;2.50;;;;;;;15.37;84.84;100298.06;20982708;28;20552;-70
2021/08/03 02:16:43;;;;;;;4.38;2.08;;;;;;;15.27;85.12;100299.31;20984095;28;20044;-69
2021/08/03 02:26:45;;;;;;;4.78;2.72;;;;;;;15.19;85.58;100293.47;20991230;28;20052;-68
2021/08/03 02:36:49;;;;;;;5.35;2.83;;;;;;;15.09;85.07;100288.53;20997922;28;20117;-69
2021/08/03 02:46:55;;;;;;;5.03;2.60;;;;;;;14.94;85.40;100288.22;20996532;28;20052;-69
2021/08/03 02:57:00;;;;;;;7.38;2.92;;;;;;;14.93;85.90;100284.72;20996173;28;20150;-69
2021/08/03 03:07:16;;;;;;;4.80;2.67;;;;;;;14.86;86.20;100270.91;20994680;28;20044;-69
2021/08/03 03:17:20;;;;;;;5.45;2.92;;;;;;;14.85;85.77;100260.38;20994536;28;20045;-69
2021/08/03 03:27:23;;;;;;;5.20;3.00;;;;;;;14.86;85.61;100264.78;20994267;28;20644;-68
2021/08/03 03:37:28;;;;;;;5.15;2.90;;;;;;;14.71;85.63;100257.38;20991435;28;20041;-69
2021/08/03 03:47:34;;;;;;;4.93;2.90;;;;;;;14.58;86.62;100264.88;20992631;28;20494;-68
2021/08/03 03:57:37;;;;;;;5.63;3.28;;;;;;;14.69;85.73;100259.22;20991782;28;20052;-69
2021/08/03 04:07:40;;;;;;;6.57;2.70;;;;;;;14.87;85.48;100254.16;20990531;28;20040;-69
2021/08/03 04:17:41;;;;;;;4.70;2.80;;;;;;;15.08;83.84;100255.16;20990859;28;20464;-69
2021/08/03 04:27:44;;;;;;;4.85;2.78;;;;;;;15.01;83.84;100247.53;20989953;28;20056;-69
2021/08/03 04:37:47;;;;;;;4.80;2.40;;;;;;;15.01;84.53;100251.03;20970721;28;20049;-69
2021/08/03 04:47:51;;;;;;;5.40;2.40;;;;;;;15.02;83.94;100236.06;20991243;28;20097;-69
2021/08/03 04:57:53;;;;;;;7.97;3.58;;;;;;;14.99;84.60;100244.94;20988008;28;20056;-69
2021/08/03 05:08:00;;;;;;;7.35;3.08;;;;;;;15.05;84.78;100235.97;20986138;28;20040;-69
2021/08/03 05:18:02;;;;;;;4.35;2.30;;;;;;;15.34;83.90;100221.69;20986607;28;20051;-69
2021/08/03 05:28:03;;;;;;;3.88;2.38;;;;;;;15.62;82.32;100214.44;20986261;28;20061;-69
2021/08/03 05:38:06;;;;;;;5.22;2.60;;;;;;;15.87;82.11;100216.97;20984177;28;20052;-69
2021/08/03 05:48:07;;;;;;;5.15;2.20;;;;;;;16.03;80.98;100221.63;20851355;22;20065;-79
2021/08/03 05:58:09;;;;;;;5.20;2.13;;;;;;;16.12;80.61;100226.53;20845150;28;20044;-80
2021/08/03 06:08:11;;;;;;;6.80;2.58;;;;;;;16.10;80.22;100231.88;20929239;28;20487;-80
2021/08/03 06:18:22;;;;;;;4.65;2.00;;;;;;;16.25;80.03;100232.16;20943430;28;20045;-81
2021/08/03 06:28:25;;;;;;;4.18;2.20;;;;;;;16.62;78.32;100242.91;20940573;28;20045;-80
2021/08/03 06:38:27;;;;;;;7.22;2.45;;;;;;;16.40;78.69;100247.38;20924392;28;20495;-80
2021/08/03 06:48:37;;;;;;;4.95;2.50;;;;;;;16.29;78.61;100260.16;20941679;28;20049;-80
2021/08/03 06:58:57;;;;;;;6.18;2.72;;;;;;;16.35;78.98;100265.22;20941342;28;20049;-80
2021/08/03 07:09:04;;;;;;;6.88;2.75;;;;;;;16.11;83.36;100283.78;20890594;28;20037;-80
2021/08/03 07:20:34;;;;;;;7.95;3.15;;;;;;;15.99;86.36;100286.91;20825993;28;20109;-82
2021/08/03 07:31:20;;;;;;;4.63;2.58;;;;;;;15.94;85.59;100275.66;20657168;28;20459;-82
2021/08/03 07:41:25;;;;;;;8.57;3.45;;;;;;;15.96;86.65;100292.31;20796788;28;20075;-82
2021/08/03 07:51:32;;;;;;;5.80;2.58;;;;;;;15.77;86.67;100313.31;20811298;28;20048;-82
2021/08/03 08:01:35;;;;;;;5.30;2.45;;;;;;;15.75;86.34;100344.16;20823046;28;20045;-82
2021/08/03 08:11:38;;;;;;;7.00;2.65;;;;;;;15.66;89.41;100339.22;20797166;28;20046;-82
2021/08/03 08:21:39;;;;;;;6.78;2.63;;;;;;;15.47;87.60;100328.47;20793339;28;20042;-82
2021/08/03 08:31:41;;;;;;;5.03;2.72;;;;;;;15.67;88.36;100319.84;20802219;28;20054;-82
2021/08/03 08:41:44;;;;;;;5.95;2.70;;;;;;;15.91;87.79;100318.06;20787828;28;20046;-83
2021/08/03 08:51:46;;;;;;;11.00;3.58;;;;;;;15.74;88.85;100305.50;20760389;28;20074;-82
2021/08/03 09:01:50;;;;;;;8.23;3.90;;;;;;;15.45;89.78;100338.22;20765352;28;20126;-82
2021/08/03 09:11:52;;;;;;;8.15;4.00;;;;;;;15.67;88.73;100337.47;20784166;28;20149;-83
2021/08/03 09:22:20;;;;;;;7.25;4.03;;;;;;;16.12;88.36;100340.97;20772237;28;20053;-83
2021/08/03 09:32:30;;;;;;;8.90;3.47;;;;;;;16.44;87.68;100299.19;20784531;28;20423;-83
2021/08/03 09:42:33;;;;;;;7.32;3.13;;;;;;;16.13;87.53;100292.50;20764793;28;20080;-83
2021/08/03 09:52:40;;;;;;;6.47;2.72;;;;;;;16.05;88.28;100293.72;20773638;28;20058;-84
2021/08/03 10:02:42;;;;;;;4.97;2.22;;;;;;;16.39;86.04;100278.22;20797643;28;20046;-83
2021/08/03 10:12:46;;;;;;;5.07;2.10;;;;;;;17.11;84.55;100259.28;20786943;28;20415;-83
2021/08/03 10:22:58;;;;;;;4.17;1.50;;;;;;;17.55;79.06;100250.22;20796143;28;20073;-82
2021/08/03 10:33:10;;;;;;;2.50;1.20;;;;;;;18.89;77.92;100232.97;20760009;28;20152;-82
2021/08/03 10:43:25;;;;;;;3.72;1.25;;;;;;;19.78;73.82;100227.28;20757065;28;20065;-82
2021/08/03 10:54:07;;;;;;;2.25;1.17;;;;;;;19.81;75.17;100213.84;20779211;28;20050;-81
2021/08/03 11:04:42;;;;;;;3.30;1.30;;;;;;;19.71;70.83;100206.38;20843864;28;20435;-82
2021/08/03 11:14:43;;;;;;;3.28;1.35;;;;;;;19.41;72.63;100198.31;20889634;28;20050;-82
2021/08/03 11:24:45;;;;;;;2.50;1.17;;;;;;;19.95;71.48;100198.81;20859575;28;20106;-82
2021/08/03 11:34:48;;;;;;;3.65;1.45;;;;;;;20.31;67.48;100186.09;20829049;28;20064;-81
2021/08/03 11:45:08;;;;;;;3.60;1.45;;;;;;;20.67;67.39;100169.78;20804905;28;20050;-80
2021/08/03 11:55:15;;;;;;;5.35;1.50;;;;;;;20.46;67.26;100145.31;20796731;28;20042;-80
2021/08/03 12:05:30;;;;;;;2.97;1.48;;;;;;;20.78;65.56;100135.38;20796232;28;20042;-81
2021/08/03 12:15:48;;;;;;;3.70;1.50;;;;;;;21.01;65.92;100125.94;20847532;28;20426;-81
2021/08/03 12:25:53;;;;;;;4.28;1.60;;;;;;;20.60;66.17;100125.84;20865262;28;20042;-80
2021/08/03 12:36:01;;;;;;;2.65;1.40;;;;;;;20.55;65.85;100107.50;20864648;28;20049;-81
2021/08/03 12:46:04;;;;;;;4.03;1.48;;;;;;;20.98;64.98;100099.50;20888943;28;20053;-81
2021/08/03 12:56:28;;;;;;;3.40;1.50;;;;;;;21.18;66.56;100100.91;20868369;28;20046;-82
2021/08/03 13:06:32;;;;;;;2.63;1.30;;;;;;;21.17;62.89;100088.53;20883711;28;20053;-82
2021/08/03 13:16:56;;;;;;;2.95;1.40;;;;;;;21.44;62.77;100080.59;20805261;28;20050;-81
2021/08/03 13:27:00;;;;;;;3.47;1.27;;;;;;;21.10;61.96;100082.75;20777821;28;20469;-80
2021/08/03 13:37:02;;;;;;;3.00;1.52;;;;;;;21.37;61.77;100073.97;20783923;28;20046;-81
2021/08/03 13:47:28;;;;;;;3.58;1.60;;;;;;;20.79;65.00;100078.53;20794580;28;20096;-82
2021/08/03 13:57:54;;;;;;;3.85;1.70;;;;;;;20.47;66.63;100110.66;20798239;28;20041;-82
2021/08/03 14:08:00;;;;;;;3.72;1.30;;;;;;;19.76;69.56;100113.13;20774196;28;20046;-82
2021/08/03 14:18:06;;;;;;;3.25;1.30;;;;;;;18.69;77.38;100082.00;20848869;28;20048;-84
2021/08/03 14:28:08;;;;;;;2.95;1.23;;;;;;;18.91;79.08;100071.03;20872297;28;20410;-83
2021/08/03 14:38:10;;;;;;;3.80;1.70;;;;;;;19.89;77.86;100065.47;20883253;28;20057;-83
2021/08/03 14:48:12;;;;;;;4.88;1.60;;;;;;;20.25;77.21;100052.59;20874797;28;20053;-83
2021/08/03 14:58:20;;;;;;;2.63;1.40;;;;;;;20.13;76.35;100055.16;20875774;28;20126;-82
2021/08/03 15:08:27;;;;;;;3.10;0.90;;;;;;;19.93;73.65;100056.34;20905573;28;20105;-82
2021/08/03 15:18:29;;;;;;;2.67;0.70;;;;;;;19.86;73.08;100062.97;20801225;28;20181;-82
2021/08/03 15:28:33;;;;;;;2.80;1.02;;;;;;;19.97;73.76;100063.19;20796743;28;20047;-82
2021/08/03 15:38:34;;;;;;;3.00;0.85;;;;;;;19.85;72.79;100083.38;20813273;28;20065;-81
2021/08/03 15:48:38;;;;;;;3.40;1.10;;;;;;;19.78;71.50;100089.97;20809623;28;20134;-81
2021/08/03 15:58:39;;;;;;;3.92;1.02;;;;;;;19.25;71.76;100101.00;20815568;28;20069;-82
2021/08/03 16:08:41;;;;;;;3.30;1.25;;;;;;;18.87;73.56;100099.53;20816189;28;20049;-81
2021/08/03 16:18:47;;;;;;;2.75;1.10;;;;;;;19.02;74.30;100097.88;20866910;28;20052;-81
2021/08/03 16:28:50;;;;;;;3.15;1.23;;;;;;;18.89;72.85;100094.16;20804180;28;20076;-82
2021/08/03 16:38:51;;;;;;;4.45;1.17;;;;;;;18.85;73.68;100089.97;20926142;28;20045;-82
2021/08/03 16:48:56;;;;;;;2.28;1.20;;;;;;;18.69;73.61;100077.53;20900800;28;20074;-81
2021/08/03 16:58:56;;;;;;;4.78;1.40;;;;;;;18.39;75.26;100095.91;20845777;28;20410;-81
2021/08/03 17:09:10;;;;;;;4.15;1.27;;;;;;;18.42;75.87;100102.84;20960312;28;20048;-82
2021/08/03 17:19:20;;;;;;;4.53;1.60;;;;;;;18.06;76.83;100130.34;20945707;28;20068;-81
2021/08/03 17:29:25;;;;;;;3.75;1.50;;;;;;;17.89;79.38;100104.69;20875521;28;20050;-82
2021/08/03 17:39:30;;;;;;;4.35;1.65;;;;;;;17.68;81.06;100113.69;20843301;28;20072;-82
2021/08/03 17:49:36;;;;;;;4.35;1.52;;;;;;;17.65;81.44;100112.03;20841834;28;20076;-82
2021/08/03 17:59:41;;;;;;;3.72;1.70;;;;;;;17.72;81.07;100109.94;20875399;28;20546;-83
2021/08/03 18:09:44;;;;;;;5.57;2.20;;;;;;;17.55;80.43;100101.97;20846720;28;20457;-82
2021/08/03 18:19:48;;;;;;;4.35;1.90;;;;;;;17.33;80.13;100113.59;20848135;28;20045;-82
2021/08/03 18:29:50;;;;;;;;;;;;;;;17.22;81.16;100136.22;20846052;28;20056;-83
2021/08/03 18:39:59;;;;;;;6.07;2.17;;;;;;;17.02;81.59;100135.38;20856109;28;19929;-82
2021/08/03 18:50:04;;;;;;;4.47;1.90;;;;;;;16.91;82.64;100137.63;20854463;28;20454;-82
2021/08/03 19:00:06;;;;;;;4.00;1.70;;;;;;;16.96;81.37;100143.59;20877261;28;20456;-82
2021/08/03 19:10:14;;;;;;;4.38;2.30;;;;;;;16.94;81.57;100153.38;20863448;28;20098;-82
2021/08/03 19:20:17;;;;;;;4.63;1.88;;;;;;;16.74;82.58;100171.94;20883540;28;20076;-83
2021/08/03 19:30:28;;;;;;;4.40;2.17;;;;;;;16.64;81.54;100188.16;20918771;28;20026;-83
2021/08/03 19:40:31;;;;;;;5.10;2.10;;;;;;;16.65;81.03;100195.16;20898245;28;20053;-83
2021/08/03 19:50:33;;;;;;;5.20;2.30;;;;;;;16.59;81.29;100192.81;20889392;28;20092;-82
2021/08/03 20:00:36;;;;;;;5.75;2.25;;;;;;;16.51;81.43;100213.41;20845528;28;20053;-82
2021/08/03 20:10:37;;;;;;;7.25;2.20;;;;;;;16.39;81.93;100227.16;20863369;28;20053;-83
2021/08/03 20:20:42;;;;;;;5.80;2.75;;;;;;;16.26;83.25;100218.03;20862592;28;20345;-83
2021/08/03 20:30:46;;;;;;;;;;;;;;;16.26;82.72;100226.81;20834443;28;20045;-82
2021/08/03 20:40:49;;;;;;;5.65;2.70;;;;;;;16.16;84.31;100228.97;20853707;28;19928;-83
2021/08/03 20:50:55;;;;;;;6.90;2.83;;;;;;;16.11;83.76;100225.66;20863619;28;20060;-82
2021/08/03 21:01:01;;;;;;;4.32;2.45;;;;;;;16.02;84.56;100246.31;20871263;28;20417;-81
2021/08/03 21:11:03;;;;;;;4.88;2.20;;;;;;;15.92;84.92;100248.47;20877090;28;20084;-82
2021/08/03 21:21:05;;;;;;;5.45;2.42;;;;;;;15.96;84.60;100254.50;20892555;28;20057;-82
2021/08/03 21:31:07;;;;;;;6.20;2.00;;;;;;;15.90;84.43;100250.28;20892216;28;20074;-82
2021/08/03 21:41:09;;;;;;;3.85;2.20;;;;;;;15.92;84.34;100245.84;20873529;28;20077;-81
2021/08/03 21:51:11;;;;;;;4.88;2.10;;;;;;;15.80;84.84;100248.94;20876825;28;20073;-82
2021/08/03 22:01:14;;;;;;;5.82;2.30;;;;;;;15.76;85.14;100261.44;20895650;28;20077;-82
2021/08/03 22:11:16;;;;;;;5.07;2.13;;;;;;;15.74;85.33;100252.69;20962865;28;20045;-81
2021/08/03 22:21:18;;;;;;;7.10;2.28;;;;;;;15.72;85.53;100262.47;20993663;28;20083;-82
2021/08/03 22:31:19;;;;;;;6.75;3.00;;;;;;;15.74;85.01;100259.75;20977156;28;20041;-82
2021/08/03 22:41:21;;;;;;;5.88;2.60;;;;;;;15.73;86.13;100264.19;20929495;28;20091;-81
2021/08/03 22:51:23;;;;;;;5.43;2.40;;;;;;;15.78;86.02;100253.44;20927253;28;20483;-81
2021/08/03 23:01:25;;;;;;;4.85;2.38;;;;;;;15.67;85.71;100255.66;20927003;28;20503;-81
2021/08/03 23:11:29;;;;;;;5.18;2.20;;;;;;;15.67;86.05;100239.81;20939797;28;20059;-81
2021/08/03 23:21:31;;;;;;;4.65;2.38;;;;;;;15.66;86.23;100244.22;20945457;28;20049;-82
2021/08/03 23:31:32;;;;;;;5.18;2.20;;;;;;;15.59;86.40;100256.75;20947116;28;20070;-82
2021/08/03 23:41:34;;;;;;;5.85;2.50;;;;;;;15.58;86.96;100257.69;20927360;28;20597;-81
2021/08/03 23:51:36;;;;;;;5.95;3.20;;;;;;;15.56;87.44;100263.94;20954006;28;20053;-81
